createdAt,value
2022-10-19T00:02:15.950Z,102464.94
2022-10-19T00:04:42.469Z,102468.47
2022-10-19T00:07:08.860Z,102475.56
2022-10-19T00:09:35.253Z,102469.31
2022-10-19T00:12:01.629Z,102473.78
2022-10-19T00:14:28.020Z,102471.09
2022-10-19T00:16:54.545Z,102476.44
2022-10-19T00:19:25.463Z,102476.38
2022-10-19T00:21:51.897Z,102469.25
2022-10-19T00:24:18.328Z,102474.59
2022-10-19T00:26:44.716Z,102476.44
2022-10-19T00:29:12.360Z,102463.97
2022-10-19T00:31:38.937Z,102478.16
2022-10-19T00:34:05.348Z,102476.44
2022-10-19T00:36:33.556Z,102483.53
2022-10-19T00:39:00.191Z,102489.75
2022-10-19T00:41:29.124Z,102491.53
2022-10-19T00:44:06.628Z,102486.19
2022-10-19T00:46:35.280Z,102494.22
2022-10-19T00:49:09.988Z,102497.75
2022-10-19T00:51:39.573Z,102491.50
2022-10-19T00:54:05.993Z,102483.44
2022-10-19T00:56:32.636Z,102497.66
2022-10-19T00:58:59.053Z,102492.34
2022-10-19T01:01:25.510Z,102495.00
2022-10-19T01:03:51.909Z,102494.13
2022-10-19T01:06:18.315Z,102494.13
2022-10-19T01:08:44.686Z,102483.44
2022-10-19T01:11:35.814Z,102490.59
2022-10-19T01:14:21.116Z,102493.28
2022-10-19T01:16:50.389Z,102489.75
2022-10-19T01:19:39.732Z,102491.53
2022-10-19T01:22:32.602Z,102483.53
2022-10-19T01:25:21.356Z,102481.78
2022-10-19T01:28:02.969Z,102488.94
2022-10-19T01:30:36.062Z,102486.25
2022-10-19T01:33:17.150Z,102485.34
2022-10-19T01:35:55.561Z,102489.81
2022-10-19T01:38:35.106Z,102492.50
2022-10-19T01:41:04.393Z,102492.44
2022-10-19T01:43:30.778Z,102501.34
2022-10-19T01:46:09.574Z,102502.25
2022-10-19T01:48:36.113Z,102501.34
2022-10-19T01:51:05.447Z,102498.72
2022-10-19T01:53:34.901Z,102495.16
2022-10-19T01:56:01.297Z,102496.06
2022-10-19T01:58:28.852Z,102498.75
2022-10-19T02:00:56.159Z,102497.00
2022-10-19T02:03:23.236Z,102507.69
2022-10-19T02:05:49.684Z,102499.66
2022-10-19T02:08:19.299Z,102494.31
2022-10-19T02:10:45.732Z,102494.34
2022-10-19T02:13:13.229Z,102490.75
2022-10-19T02:15:40.933Z,102486.34
2022-10-19T02:18:07.296Z,102489.03
2022-10-19T02:20:34.830Z,102484.59
2022-10-19T02:23:05.597Z,102481.09
2022-10-19T02:25:32.557Z,102481.97
2022-10-19T02:27:59.049Z,102490.00
2022-10-19T02:30:25.472Z,102494.47
2022-10-19T02:32:51.837Z,102480.22
2022-10-19T02:35:18.211Z,102490.97
2022-10-19T02:37:44.604Z,102478.50
2022-10-19T02:40:11.139Z,102492.75
2022-10-19T02:42:41.517Z,102494.56
2022-10-19T02:45:29.220Z,102493.66
2022-10-19T02:48:00.799Z,102492.78
2022-10-19T02:50:27.835Z,102491.00
2022-10-19T02:52:54.261Z,102494.53
2022-10-19T02:55:20.626Z,102498.03
2022-10-19T02:57:47.025Z,102493.59
2022-10-19T03:00:13.430Z,102494.47
2022-10-19T03:02:39.816Z,102498.03
2022-10-19T03:05:06.562Z,102498.84
2022-10-19T03:07:33.260Z,102491.78
2022-10-19T03:09:59.814Z,102498.91
2022-10-19T03:12:26.226Z,102503.38
2022-10-19T03:14:52.607Z,102507.84
2022-10-19T03:17:19.196Z,102511.38
2022-10-19T03:19:45.694Z,102506.94
2022-10-19T03:22:13.435Z,102507.84
2022-10-19T03:24:39.809Z,102514.09
2022-10-19T03:27:06.201Z,102517.63
2022-10-19T03:29:32.589Z,102522.09
2022-10-19T03:31:58.983Z,102517.66
2022-10-19T03:34:25.363Z,102519.47
2022-10-19T03:36:51.730Z,102529.28
2022-10-19T03:39:18.233Z,102533.72
2022-10-19T03:41:44.696Z,102535.50
2022-10-19T03:44:11.276Z,102533.72
2022-10-19T03:46:37.800Z,102533.72
2022-10-19T03:49:04.269Z,102528.38
2022-10-19T03:51:31.336Z,102534.63
2022-10-19T03:54:02.994Z,102527.50
2022-10-19T03:56:29.934Z,102534.63
2022-10-19T03:58:57.019Z,102536.41
2022-10-19T04:01:30.267Z,102537.31
2022-10-19T04:04:02.164Z,102539.13
2022-10-19T04:06:30.214Z,102548.06
2022-10-19T04:08:56.620Z,102541.81
2022-10-19T04:11:24.755Z,102548.06
2022-10-19T04:13:52.133Z,102551.63
2022-10-19T04:16:19.128Z,102549.84
2022-10-19T04:18:45.706Z,102561.41
2022-10-19T04:21:28.204Z,102556.97
2022-10-19T04:24:05.489Z,102558.75
2022-10-19T04:26:32.230Z,102551.63
2022-10-19T04:28:58.975Z,102555.16
2022-10-19T04:31:25.704Z,102556.91
2022-10-19T04:33:52.241Z,102553.34
2022-10-19T04:36:18.660Z,102558.69
2022-10-19T04:38:45.106Z,102556.03
2022-10-19T04:41:13.263Z,102558.69
2022-10-19T04:43:39.713Z,102562.25
2022-10-19T04:46:09.804Z,102558.69
2022-10-19T04:48:36.662Z,102571.16
2022-10-19T04:51:03.222Z,102564.91
2022-10-19T04:53:29.746Z,102564.91
2022-10-19T04:55:56.184Z,102570.25
2022-10-19T04:58:22.654Z,102566.72
2022-10-19T05:00:49.130Z,102568.50
2022-10-19T05:03:15.532Z,102566.75
2022-10-19T05:05:41.932Z,102565.88
2022-10-19T05:08:09.062Z,102566.75
2022-10-19T05:10:36.343Z,102568.53
2022-10-19T05:13:02.762Z,102569.44
2022-10-19T05:15:29.515Z,102567.66
2022-10-19T05:17:56.065Z,102569.44
2022-10-19T05:20:22.732Z,102573.00
2022-10-19T05:22:49.151Z,102565.88
2022-10-19T05:25:15.547Z,102562.31
2022-10-19T05:27:41.987Z,102560.53
2022-10-19T05:30:08.829Z,102572.09
2022-10-19T05:32:35.431Z,102563.19
2022-10-19T05:35:01.941Z,102560.53
2022-10-19T05:37:28.337Z,102565.88
2022-10-19T05:39:54.895Z,102560.53
2022-10-19T05:42:21.290Z,102563.19
2022-10-19T05:44:47.717Z,102564.09
2022-10-19T05:47:14.149Z,102556.97
2022-10-19T05:49:40.583Z,102556.97
2022-10-19T05:52:06.955Z,102560.47
2022-10-19T05:54:33.420Z,102559.59
2022-10-19T05:56:59.824Z,102562.25
2022-10-19T05:59:26.245Z,102564.94
2022-10-19T06:01:52.691Z,102563.13
2022-10-19T06:04:19.170Z,102562.25
2022-10-19T06:06:47.021Z,102564.03
2022-10-19T06:09:13.591Z,102571.13
2022-10-19T06:11:41.221Z,102573.81
2022-10-19T06:14:12.267Z,102572.94
2022-10-19T06:16:38.959Z,102576.44
2022-10-19T06:19:05.558Z,102576.44
2022-10-19T06:21:32.452Z,102567.53
2022-10-19T06:24:00.356Z,102576.44
2022-10-19T06:26:26.924Z,102568.41
2022-10-19T06:28:55.292Z,102569.28
2022-10-19T06:31:21.724Z,102571.03
2022-10-19T06:33:49.474Z,102575.47
2022-10-19T06:36:20.982Z,102571.91
2022-10-19T06:38:50.337Z,102565.69
2022-10-19T06:41:16.879Z,102571.03
2022-10-19T06:43:43.251Z,102573.69
2022-10-19T06:46:16.576Z,102574.56
2022-10-19T06:48:42.970Z,102572.72
2022-10-19T06:51:09.420Z,102579.84
2022-10-19T06:53:35.941Z,102586.03
2022-10-19T06:56:03.783Z,102578.88
2022-10-19T06:58:30.194Z,102577.09
2022-10-19T07:00:57.524Z,102578.00
2022-10-19T07:03:25.048Z,102590.44
2022-10-19T07:05:58.585Z,102589.50
2022-10-19T07:08:25.708Z,102593.97
2022-10-19T07:10:57.303Z,102593.94
2022-10-19T07:13:23.998Z,102595.72
2022-10-19T07:15:55.906Z,102595.72
2022-10-19T07:18:22.309Z,102599.28
2022-10-19T07:20:58.476Z,102612.56
2022-10-19T07:23:25.531Z,102606.28
2022-10-19T07:25:55.114Z,102612.47
2022-10-19T07:28:21.644Z,102620.47
2022-10-19T07:30:48.098Z,102618.72
2022-10-19T07:33:14.530Z,102622.34
2022-10-19T07:35:40.993Z,102618.81
2022-10-19T07:38:07.487Z,102627.69
2022-10-19T07:40:34.193Z,102629.50
2022-10-19T07:43:00.587Z,102629.53
2022-10-19T07:45:26.994Z,102633.09
2022-10-19T07:47:53.399Z,102633.13
2022-10-19T07:50:19.781Z,102632.22
2022-10-19T07:52:46.419Z,102627.75
2022-10-19T07:55:12.800Z,102626.03
2022-10-19T07:57:40.752Z,102628.72
2022-10-19T08:00:09.159Z,102626.88
2022-10-19T08:02:53.563Z,102625.09
2022-10-19T08:05:21.989Z,102632.22
2022-10-19T08:07:48.453Z,102626.84
2022-10-19T08:10:14.892Z,102626.78
2022-10-19T08:12:41.332Z,102633.03
2022-10-19T08:15:08.011Z,102632.03
2022-10-19T08:17:37.311Z,102634.66
2022-10-19T08:20:04.836Z,102627.50
2022-10-19T08:22:31.273Z,102628.31
2022-10-19T08:24:57.799Z,102628.31
2022-10-19T08:27:24.200Z,102641.69
2022-10-19T08:29:50.775Z,102644.34
2022-10-19T08:32:17.931Z,102647.03
2022-10-19T08:34:44.612Z,102648.81
2022-10-19T08:37:20.225Z,102653.28
2022-10-19T08:39:57.377Z,102639.09
2022-10-19T08:42:28.340Z,102647.88
2022-10-19T08:45:31.258Z,102646.91
2022-10-19T08:48:03.626Z,102646.94
2022-10-19T08:50:37.740Z,102658.50
2022-10-19T08:53:10.787Z,102662.13
2022-10-19T08:55:59.692Z,102660.44
2022-10-19T08:58:29.998Z,102664.91
2022-10-19T09:01:04.190Z,102662.22
2022-10-19T09:04:00.000Z,102665.72
2022-10-19T09:06:30.262Z,102663.06
2022-10-19T09:08:56.667Z,102663.03
2022-10-19T09:11:24.751Z,102664.75
2022-10-19T09:14:04.686Z,102664.59
2022-10-19T09:16:31.957Z,102664.44
2022-10-19T09:18:58.343Z,102660.78
2022-10-19T09:21:34.447Z,102660.72
2022-10-19T09:24:24.264Z,102675.03
2022-10-19T09:26:58.107Z,102674.06
2022-10-19T09:29:37.196Z,102678.50
2022-10-19T09:32:05.360Z,102672.13
2022-10-19T09:34:36.593Z,102672.03
2022-10-19T09:37:03.134Z,102665.72
2022-10-19T09:39:30.108Z,102671.97
2022-10-19T09:42:39.050Z,102674.63
2022-10-19T09:45:30.360Z,102671.00
2022-10-19T09:48:02.402Z,102671.97
2022-10-19T09:50:35.193Z,102677.38
2022-10-19T09:53:04.691Z,102672.03
2022-10-19T09:55:43.259Z,102664.94
2022-10-19T09:58:17.813Z,102671.28
2022-10-19T10:00:48.397Z,102666.88
2022-10-19T10:03:37.860Z,102666.09
2022-10-19T10:06:15.447Z,102669.72
2022-10-19T10:08:46.868Z,102667.91
2022-10-19T10:11:15.305Z,102658.97
2022-10-19T10:13:43.425Z,102667.00
2022-10-19T10:16:15.266Z,102664.31
2022-10-19T10:21:47.958Z,102657.72
2022-10-19T10:24:14.301Z,102671.81
2022-10-19T10:26:42.125Z,102669.78
2022-10-19T10:29:23.796Z,102675.75
2022-10-19T10:31:53.742Z,102669.53
2022-10-19T10:34:50.132Z,102676.78
2022-10-19T10:37:37.408Z,102673.38
2022-10-19T10:40:05.027Z,102678.00
2022-10-19T10:42:40.149Z,102677.22
2022-10-19T10:45:17.248Z,102671.13
2022-10-19T10:47:43.607Z,102672.16
2022-10-19T10:50:16.904Z,102673.03
2022-10-19T10:52:55.342Z,102675.63
2022-10-19T10:55:21.730Z,102679.19
2022-10-19T10:57:53.245Z,102675.69
2022-10-19T11:00:21.165Z,102672.13
2022-10-19T11:03:13.895Z,102661.28
2022-10-19T11:06:07.704Z,102657.56
2022-10-19T11:09:09.307Z,102661.19
2022-10-19T11:11:38.836Z,102659.47
2022-10-19T11:14:28.945Z,102646.09
2022-10-19T11:16:56.659Z,102647.84
2022-10-19T11:19:33.889Z,102654.00
2022-10-19T11:22:06.874Z,102644.13
2022-10-19T11:24:47.923Z,102652.03
2022-10-19T11:27:43.280Z,102649.28
2022-10-19T11:30:09.624Z,102637.63
2022-10-19T11:33:06.128Z,102640.22
2022-10-19T11:35:44.647Z,102636.63
2022-10-19T11:38:37.375Z,102631.22
2022-10-19T11:41:18.647Z,102634.69
2022-10-19T11:44:20.450Z,102624.72
2022-10-19T11:46:59.876Z,102628.22
2022-10-19T11:49:51.539Z,102618.25
2022-10-19T11:52:24.446Z,102621.72
2022-10-19T11:55:28.539Z,102606.69
2022-10-19T11:58:04.097Z,102607.50
2022-10-19T12:00:39.495Z,102601.13
2022-10-19T12:03:38.416Z,102596.38
2022-10-19T12:06:07.801Z,102599.56
2022-10-19T12:08:51.285Z,102596.78
2022-10-19T12:11:26.193Z,102586.59
2022-10-19T12:13:55.873Z,102575.97
2022-10-19T12:16:22.119Z,102582.38
2022-10-19T12:18:50.112Z,102577.28
2022-10-19T12:21:29.658Z,102575.47
2022-10-19T12:23:59.172Z,102563.41
2022-10-19T12:26:25.964Z,102565.81
2022-10-19T12:28:53.998Z,102575.16
2022-10-19T12:31:20.362Z,102570.91
2022-10-19T12:34:24.347Z,102561.47
2022-10-19T12:37:01.070Z,102571.91
2022-10-19T12:39:49.861Z,102564.13
2022-10-19T12:42:24.644Z,102562.72
2022-10-19T12:45:09.971Z,102561.06
2022-10-19T12:47:36.618Z,102561.53
2022-10-19T12:50:03.625Z,102563.97
2022-10-19T12:52:42.121Z,102548.78
2022-10-19T12:55:17.474Z,102546.41
2022-10-19T12:57:44.599Z,102542.88
2022-10-19T13:00:25.247Z,102541.91
2022-10-19T13:03:01.898Z,102545.00
2022-10-19T13:05:29.419Z,102541.69
2022-10-19T13:07:55.797Z,102538.28
2022-10-19T13:10:23.590Z,102539.41
2022-10-19T13:12:50.026Z,102535.09
2022-10-19T13:15:34.998Z,102548.28
2022-10-19T13:18:14.632Z,102545.22
2022-10-19T13:20:48.601Z,102550.97
2022-10-19T13:23:14.839Z,102546.19
2022-10-19T13:25:41.831Z,102534.50
2022-10-19T13:28:08.076Z,102537.03
2022-10-19T13:30:37.147Z,102533.41
2022-10-19T13:33:22.535Z,102530.03
2022-10-19T13:35:48.933Z,102519.72
2022-10-19T13:38:20.558Z,102526.13
2022-10-19T13:40:49.845Z,102527.53
2022-10-19T13:43:35.315Z,102522.09
2022-10-19T13:46:04.562Z,102523.25
2022-10-19T13:48:56.457Z,102524.41
2022-10-19T13:51:41.413Z,102528.72
2022-10-19T13:54:22.044Z,102524.72
2022-10-19T13:56:54.419Z,102520.59
2022-10-19T13:59:40.953Z,102513.81
2022-10-19T14:02:47.013Z,102512.91
2022-10-19T14:08:17.368Z,102510.19
2022-10-19T14:11:00.260Z,102519.56
2022-10-19T14:13:27.944Z,102513.81
2022-10-19T14:15:55.796Z,102513.50
2022-10-19T14:18:32.928Z,102506.09
2022-10-19T14:21:00.871Z,102507.97
2022-10-19T14:23:31.969Z,102514.25
2022-10-19T14:26:05.576Z,102511.75
2022-10-19T14:28:32.076Z,102508.09
2022-10-19T14:31:04.090Z,102496.41
2022-10-19T14:33:32.652Z,102494.84
2022-10-19T14:35:59.413Z,102504.06
2022-10-19T14:38:32.872Z,102504.16
2022-10-19T14:40:59.287Z,102500.09
2022-10-19T14:43:27.284Z,102495.88
2022-10-19T14:46:06.062Z,102499.69
2022-10-19T14:48:35.645Z,102500.13
2022-10-19T14:51:02.161Z,102496.91
2022-10-19T14:53:48.236Z,102496.66
2022-10-19T14:56:19.793Z,102494.16
2022-10-19T14:58:56.554Z,102491.31
2022-10-19T15:01:22.975Z,102492.50
2022-10-19T15:03:49.392Z,102492.19
2022-10-19T15:06:21.732Z,102480.00
2022-10-19T15:08:59.434Z,102495.53
2022-10-19T15:11:35.899Z,102487.78
2022-10-19T15:14:23.313Z,102479.94
2022-10-19T15:16:53.492Z,102482.78
2022-10-19T15:19:27.798Z,102483.81
2022-10-19T15:22:13.131Z,102472.34
2022-10-19T15:24:40.066Z,102478.63
2022-10-19T15:27:32.541Z,102466.22
2022-10-19T15:30:02.827Z,102468.09
2022-10-19T15:32:34.819Z,102472.63
2022-10-19T15:35:12.173Z,102462.03
2022-10-19T15:37:41.543Z,102471.00
2022-10-19T15:40:12.482Z,102469.31
2022-10-19T15:42:42.219Z,102473.78
2022-10-19T15:45:47.175Z,102471.22
2022-10-19T15:48:24.026Z,102461.56
2022-10-19T15:50:50.769Z,102464.34
2022-10-19T15:53:17.306Z,102460.00
2022-10-19T15:55:43.802Z,102461.78
2022-10-19T15:58:10.749Z,102462.66
2022-10-19T16:00:37.405Z,102456.44
2022-10-19T16:03:04.932Z,102458.28
2022-10-19T16:05:31.321Z,102457.41
2022-10-19T16:07:57.769Z,102458.34
2022-10-19T16:10:25.225Z,102456.63
2022-10-19T16:12:51.852Z,102459.41
2022-10-19T16:15:20.161Z,102439.03
2022-10-19T16:17:46.666Z,102454.19
2022-10-19T16:20:13.120Z,102456.00
2022-10-19T16:22:39.502Z,102456.06
2022-10-19T16:25:06.277Z,102465.94
2022-10-19T16:27:33.053Z,102462.38
2022-10-19T16:29:59.761Z,102470.47
2022-10-19T16:32:26.163Z,102463.38
2022-10-19T16:34:52.559Z,102464.28
2022-10-19T16:37:19.097Z,102459.88
2022-10-19T16:39:47.849Z,102459.88
2022-10-19T16:42:14.332Z,102467.97
2022-10-19T16:44:40.754Z,102467.09
2022-10-19T16:47:09.449Z,102462.66
2022-10-19T16:49:35.877Z,102459.13
2022-10-19T16:52:02.265Z,102458.25
2022-10-19T16:54:28.710Z,102468.06
2022-10-19T16:56:55.173Z,102469.84
2022-10-19T16:59:21.722Z,102466.28
2022-10-19T17:01:48.179Z,102471.66
2022-10-19T17:04:15.290Z,102470.78
2022-10-19T17:06:41.732Z,102472.56
2022-10-19T17:09:40.884Z,102477.91
2022-10-19T17:11:54.636Z,102474.41
2022-10-19T17:14:21.031Z,102469.06
2022-10-19T17:16:47.519Z,102475.34
2022-10-19T17:19:13.896Z,102470.00
2022-10-19T17:21:40.332Z,102469.16
2022-10-19T17:24:07.645Z,102468.28
2022-10-19T17:26:40.873Z,102472.69
2022-10-19T17:29:07.413Z,102466.50
2022-10-19T17:31:33.864Z,102462.97
2022-10-19T17:34:00.321Z,102468.28
2022-10-19T17:36:28.775Z,102467.41
2022-10-19T17:38:55.936Z,102471.84
2022-10-19T17:41:22.577Z,102471.00
2022-10-19T17:43:49.320Z,102462.09
2022-10-19T17:46:16.680Z,102466.56
2022-10-19T17:48:43.361Z,102466.56
2022-10-19T17:51:14.476Z,102468.34
2022-10-19T17:53:40.884Z,102473.72
2022-10-19T17:56:07.661Z,102474.56
2022-10-19T17:58:36.410Z,102483.50
2022-10-19T18:01:07.700Z,102479.94
2022-10-19T18:03:34.506Z,102479.97
2022-10-19T18:06:09.888Z,102481.75
2022-10-19T18:08:38.798Z,102492.44
2022-10-19T18:11:18.672Z,102496.88
2022-10-19T18:13:45.063Z,102503.09
2022-10-19T18:16:16.463Z,102505.78
2022-10-19T18:18:43.782Z,102500.44
2022-10-19T18:21:11.892Z,102502.25
2022-10-19T18:23:38.471Z,102507.56
2022-10-19T18:26:06.360Z,102503.13
2022-10-19T18:28:32.794Z,102512.00
2022-10-19T18:31:08.418Z,102507.59
2022-10-19T18:33:34.880Z,102524.47
2022-10-19T18:36:01.280Z,102510.25
2022-10-19T18:38:27.727Z,102512.91
2022-10-19T18:40:54.144Z,102516.47
2022-10-19T18:43:20.535Z,102522.69
2022-10-19T18:45:53.893Z,102517.34
2022-10-19T18:48:20.733Z,102516.47
2022-10-19T18:50:47.160Z,102512.91
2022-10-19T18:53:13.580Z,102508.47
2022-10-19T18:55:40.869Z,102504.91
2022-10-19T18:58:07.564Z,102505.81
2022-10-19T19:00:34.104Z,102498.72
2022-10-19T19:03:00.484Z,102494.25
2022-10-19T19:07:53.656Z,102496.03
2022-10-19T19:10:20.154Z,102490.72
2022-10-19T19:12:49.129Z,102490.69
2022-10-19T19:15:17.779Z,102488.91
2022-10-19T19:17:46.261Z,102480.91
2022-10-19T19:20:12.640Z,102475.59
2022-10-19T19:22:39.178Z,102472.03
2022-10-19T19:25:05.958Z,102480.03
2022-10-19T19:27:32.511Z,102472.91
2022-10-19T19:29:59.012Z,102474.69
2022-10-19T19:32:25.418Z,102467.63
2022-10-19T19:34:54.728Z,102473.81
2022-10-19T19:37:21.428Z,102466.72
2022-10-19T19:39:47.806Z,102467.59
2022-10-19T19:42:14.177Z,102462.25
2022-10-19T19:44:40.689Z,102458.69
2022-10-19T19:47:07.080Z,102460.47
2022-10-19T19:49:33.513Z,102444.50
2022-10-19T19:51:59.996Z,102447.16
2022-10-19T19:54:26.412Z,102443.59
2022-10-19T19:56:53.300Z,102448.91
2022-10-19T19:59:19.987Z,102434.72
2022-10-19T20:01:46.515Z,102428.50
2022-10-19T20:04:12.985Z,102426.72
2022-10-19T20:06:39.912Z,102427.63
2022-10-19T20:09:07.292Z,102422.28
2022-10-19T20:11:36.077Z,102422.31
2022-10-19T20:14:04.865Z,102412.53
2022-10-19T20:16:31.286Z,102411.66
2022-10-19T20:19:11.345Z,102413.44
2022-10-19T20:21:37.887Z,102408.09
2022-10-19T20:24:04.602Z,102406.31
2022-10-19T20:26:31.081Z,102405.44
2022-10-19T20:28:57.802Z,102404.53
2022-10-19T20:31:24.630Z,102408.09
2022-10-19T20:33:51.154Z,102413.44
2022-10-19T20:36:25.057Z,102409.88
2022-10-19T20:38:52.978Z,102414.28
2022-10-19T20:41:20.198Z,102415.19
2022-10-19T20:43:46.776Z,102405.41
2022-10-19T20:46:15.248Z,102405.41
2022-10-19T20:48:41.696Z,102413.44
2022-10-19T20:51:22.453Z,102401.88
2022-10-19T20:53:51.921Z,102402.75
2022-10-19T20:56:20.034Z,102399.22
2022-10-19T20:58:46.514Z,102404.53
2022-10-19T21:01:17.919Z,102401.88
2022-10-19T21:03:48.331Z,102398.31
2022-10-19T21:06:15.119Z,102390.34
2022-10-19T21:08:41.631Z,102396.56
2022-10-19T21:11:15.600Z,102385.00
2022-10-19T21:13:42.332Z,102391.22
2022-10-19T21:16:13.573Z,102387.66
2022-10-19T21:18:41.147Z,102391.22
2022-10-19T21:21:16.554Z,102384.13
2022-10-19T21:23:44.430Z,102386.78
2022-10-19T21:26:11.041Z,102384.13
2022-10-19T21:28:37.649Z,102384.13
2022-10-19T21:31:05.093Z,102383.22
2022-10-19T21:33:31.684Z,102384.94
2022-10-19T21:36:01.850Z,102381.44
2022-10-19T21:38:29.068Z,102378.75
2022-10-19T21:40:59.242Z,102373.44
2022-10-19T21:43:25.699Z,102369.88
2022-10-19T21:45:52.084Z,102368.97
2022-10-19T21:48:18.488Z,102349.44
2022-10-19T21:50:44.977Z,102360.13
2022-10-19T21:53:11.370Z,102361.88
2022-10-19T21:55:39.012Z,102355.66
2022-10-19T21:58:05.409Z,102357.41
2022-10-19T22:00:31.795Z,102355.63
2022-10-19T22:02:58.190Z,102359.19
2022-10-19T22:05:24.596Z,102350.31
2022-10-19T22:07:51.003Z,102354.72
2022-10-19T22:10:18.000Z,102356.50
2022-10-19T22:12:44.393Z,102350.25
2022-10-19T22:15:11.033Z,102350.25
2022-10-19T22:17:37.419Z,102345.84
2022-10-19T22:20:04.153Z,102347.59
2022-10-19T22:22:30.669Z,102356.44
2022-10-19T22:24:57.056Z,102356.44
2022-10-19T22:27:23.435Z,102356.44
2022-10-19T22:29:51.352Z,102358.22
2022-10-19T22:32:18.253Z,102352.91
2022-10-19T22:34:44.648Z,102347.56
2022-10-19T22:37:11.037Z,102342.25
2022-10-19T22:39:37.443Z,102337.84
2022-10-19T22:42:04.010Z,102329.84
2022-10-19T22:44:30.636Z,102326.31
2022-10-19T22:46:57.448Z,102315.63
2022-10-19T22:49:23.867Z,102297.03
2022-10-19T22:51:50.353Z,102296.19
2022-10-19T22:54:16.768Z,102293.50
2022-10-19T22:56:43.200Z,102289.97
2022-10-19T22:59:09.643Z,102290.84
2022-10-19T23:01:36.204Z,102283.78
2022-10-19T23:04:02.706Z,102287.31
2022-10-19T23:06:29.086Z,102292.63
2022-10-19T23:08:55.493Z,102300.59
2022-10-19T23:11:22.139Z,102289.94
2022-10-19T23:13:48.534Z,102289.94
2022-10-19T23:16:14.956Z,102287.31
2022-10-19T23:18:41.411Z,102272.25
2022-10-19T23:21:10.503Z,102264.28
2022-10-19T23:23:36.903Z,102262.50
2022-10-19T23:26:07.180Z,102266.94
2022-10-19T23:28:34.733Z,102268.72
2022-10-19T23:31:09.904Z,102269.56
2022-10-19T23:33:36.266Z,102266.88
2022-10-19T23:36:07.354Z,102268.66
2022-10-19T23:38:33.956Z,102260.66
2022-10-19T23:41:00.331Z,102263.31
2022-10-19T23:43:26.893Z,102269.50
2022-10-19T23:45:53.280Z,102260.66
2022-10-19T23:48:19.667Z,102265.09
2022-10-19T23:50:46.032Z,102267.75
2022-10-19T23:53:12.490Z,102267.78
2022-10-19T23:55:38.864Z,102259.81
2022-10-19T23:58:05.251Z,102252.75
